createdAt,value
2019-02-12T00:00:51.818Z,2.10
2019-02-12T00:02:59.348Z,2.16
2019-02-12T00:05:07.245Z,2.15
2019-02-12T00:07:14.732Z,2.15
2019-02-12T00:09:22.265Z,2.11
2019-02-12T00:11:29.777Z,2.12
2019-02-12T00:13:37.324Z,2.11
2019-02-12T00:15:44.792Z,2.01
2019-02-12T00:17:52.355Z,2.06
2019-02-12T00:20:00.072Z,2.05
2019-02-12T00:22:07.903Z,2.09
2019-02-12T00:24:15.457Z,2.04
2019-02-12T00:26:22.979Z,2.04
2019-02-12T00:28:30.670Z,2.08
2019-02-12T00:30:38.245Z,1.98
2019-02-12T00:32:45.912Z,2.04
2019-02-12T00:34:53.529Z,2.01
2019-02-12T00:37:00.838Z,2.03
2019-02-12T00:39:08.866Z,1.99
2019-02-12T00:41:16.042Z,1.93
2019-02-12T00:43:23.488Z,1.87
2019-02-12T00:45:30.958Z,1.87
2019-02-12T00:47:38.391Z,1.84
2019-02-12T00:49:45.506Z,1.82
2019-02-12T00:51:52.983Z,1.85
2019-02-12T00:54:00.439Z,1.88
2019-02-12T00:56:07.852Z,1.87
2019-02-12T00:58:15.398Z,1.83
2019-02-12T01:00:22.824Z,1.83
2019-02-12T01:02:29.959Z,1.85
2019-02-12T01:04:37.531Z,1.92
2019-02-12T01:06:44.831Z,1.85
2019-02-12T01:08:52.266Z,1.79
2019-02-12T01:10:59.766Z,1.79
2019-02-12T01:13:07.288Z,1.87
2019-02-12T01:15:15.118Z,1.80
2019-02-12T01:17:22.508Z,1.82
2019-02-12T01:19:30.221Z,1.75
2019-02-12T01:21:37.529Z,1.57
2019-02-12T01:23:45.036Z,1.71
2019-02-12T01:25:52.364Z,1.71
2019-02-12T01:27:59.789Z,1.69
2019-02-12T01:30:10.384Z,1.76
2019-02-12T01:32:17.786Z,1.75
2019-02-12T01:34:25.344Z,1.76
2019-02-12T01:36:32.815Z,1.74
2019-02-12T01:38:40.488Z,1.71
2019-02-12T01:40:47.925Z,1.80
2019-02-12T01:42:55.328Z,1.73
2019-02-12T01:45:02.620Z,1.76
2019-02-12T01:47:10.156Z,1.79
2019-02-12T01:49:17.569Z,1.70
2019-02-12T01:51:24.879Z,1.74
2019-02-12T01:53:32.295Z,1.72
2019-02-12T01:55:39.696Z,1.69
2019-02-12T01:57:47.033Z,1.77
2019-02-12T01:59:54.342Z,1.69
2019-02-12T02:02:01.840Z,1.68
2019-02-12T02:04:09.471Z,1.67
2019-02-12T02:06:16.767Z,1.56
2019-02-12T02:08:24.171Z,1.64
2019-02-12T02:10:31.370Z,1.58
2019-02-12T02:12:39.651Z,1.53
2019-02-12T02:14:47.089Z,1.51
2019-02-12T02:16:54.419Z,1.47
2019-02-12T02:19:01.653Z,1.50
2019-02-12T02:21:09.137Z,1.47
2019-02-12T02:23:16.428Z,1.44
2019-02-12T02:25:23.740Z,1.44
2019-02-12T02:27:31.349Z,1.33
2019-02-12T02:29:38.777Z,1.41
2019-02-12T02:31:46.149Z,1.39
2019-02-12T02:33:53.559Z,1.35
2019-02-12T02:36:00.962Z,1.28
2019-02-12T02:38:08.392Z,1.39
2019-02-12T02:40:15.714Z,1.41
2019-02-12T02:42:23.146Z,1.37
2019-02-12T02:44:30.491Z,1.40
2019-02-12T02:46:37.774Z,1.32
2019-02-12T02:48:45.186Z,1.25
2019-02-12T02:50:52.737Z,1.34
2019-02-12T02:53:00.099Z,1.25
2019-02-12T02:55:07.717Z,1.12
2019-02-12T02:57:15.281Z,1.10
2019-02-12T02:59:22.626Z,1.17
2019-02-12T03:01:30.056Z,1.06
2019-02-12T03:03:37.234Z,1.07
2019-02-12T03:05:44.687Z,1.01
2019-02-12T03:07:52.077Z,1.01
2019-02-12T03:09:59.505Z,1.03
2019-02-12T03:12:06.968Z,1.01
2019-02-12T03:14:14.368Z,1.00
2019-02-12T03:16:21.791Z,1.04
2019-02-12T03:18:28.912Z,1.02
2019-02-12T03:20:36.341Z,1.07
2019-02-12T03:22:43.786Z,0.99
2019-02-12T03:24:51.136Z,0.97
2019-02-12T03:26:58.519Z,0.95
2019-02-12T03:29:05.814Z,0.98
2019-02-12T03:31:13.209Z,0.95
2019-02-12T03:33:20.595Z,0.92
2019-02-12T03:35:28.045Z,0.96
2019-02-12T03:37:35.377Z,0.89
2019-02-12T03:39:42.837Z,0.86
2019-02-12T03:41:50.229Z,0.95
2019-02-12T03:43:57.532Z,0.84
2019-02-12T03:46:04.622Z,0.80
2019-02-12T03:48:13.481Z,0.79
2019-02-12T03:50:20.819Z,0.89
2019-02-12T03:52:28.040Z,0.84
2019-02-12T03:54:35.405Z,0.86
2019-02-12T03:56:42.775Z,0.74
2019-02-12T03:58:50.282Z,0.79
2019-02-12T04:00:57.877Z,0.81
2019-02-12T04:03:09.250Z,0.72
2019-02-12T04:05:16.702Z,0.74
2019-02-12T04:07:24.105Z,0.80
2019-02-12T04:09:31.439Z,0.80
2019-02-12T04:11:38.868Z,0.80
2019-02-12T04:13:46.183Z,0.82
2019-02-12T04:15:53.639Z,0.75
2019-02-12T04:18:01.093Z,0.75
2019-02-12T04:20:08.401Z,0.79
2019-02-12T04:22:22.231Z,0.75
2019-02-12T04:24:24.690Z,0.76
2019-02-12T04:26:32.094Z,0.76
2019-02-12T04:28:39.464Z,0.71
2019-02-12T04:30:46.899Z,0.73
2019-02-12T04:32:53.968Z,0.69
2019-02-12T04:35:01.146Z,0.67
2019-02-12T04:37:08.591Z,0.73
2019-02-12T04:39:16.052Z,0.75
2019-02-12T04:41:23.568Z,0.64
2019-02-12T04:43:30.555Z,0.76
2019-02-12T04:45:38.025Z,0.76
2019-02-12T04:47:45.479Z,0.76
2019-02-12T04:49:52.949Z,0.77
2019-02-12T04:52:00.320Z,0.66
2019-02-12T04:54:07.738Z,0.77
2019-02-12T04:56:15.235Z,0.79
2019-02-12T04:58:22.565Z,0.75
2019-02-12T05:00:30.026Z,0.71
2019-02-12T05:02:37.529Z,0.60
2019-02-12T05:04:44.948Z,0.53
2019-02-12T05:06:52.416Z,0.53
2019-02-12T05:09:19.693Z,0.49
2019-02-12T05:11:27.158Z,0.50
2019-02-12T05:13:34.508Z,0.48
2019-02-12T05:15:41.947Z,0.45
2019-02-12T05:17:49.485Z,0.44
2019-02-12T05:19:56.995Z,0.37
2019-02-12T05:22:04.456Z,0.38
2019-02-12T05:24:11.805Z,0.51
2019-02-12T05:26:19.236Z,0.44
2019-02-12T05:28:26.519Z,0.46
2019-02-12T05:30:33.814Z,0.43
2019-02-12T05:32:41.350Z,0.44
2019-02-12T05:34:48.704Z,0.51
2019-02-12T05:36:56.171Z,0.49
2019-02-12T05:39:05.217Z,0.45
2019-02-12T05:41:12.632Z,0.46
2019-02-12T05:43:20.193Z,0.46
2019-02-12T05:45:27.540Z,0.52
2019-02-12T05:47:35.015Z,0.53
2019-02-12T05:49:42.312Z,0.47
2019-02-12T05:51:49.884Z,0.46
2019-02-12T05:53:57.232Z,0.49
2019-02-12T05:56:04.637Z,0.47
2019-02-12T05:58:12.141Z,0.42
2019-02-12T06:00:21.037Z,0.47
2019-02-12T06:02:28.355Z,0.43
2019-02-12T06:04:35.647Z,0.44
2019-02-12T06:06:43.029Z,0.49
2019-02-12T06:08:50.304Z,0.46
2019-02-12T06:10:57.905Z,0.43
2019-02-12T06:13:05.481Z,0.42
2019-02-12T06:15:12.840Z,0.45
2019-02-12T06:17:20.432Z,0.44
2019-02-12T06:19:27.976Z,0.45
2019-02-12T06:21:35.372Z,0.46
2019-02-12T06:23:42.723Z,0.45
2019-02-12T06:25:50.191Z,0.45
2019-02-12T06:27:57.681Z,0.46
2019-02-12T06:30:05.253Z,0.49
2019-02-12T06:32:12.596Z,0.49
2019-02-12T06:34:20.262Z,0.48
2019-02-12T06:36:27.556Z,0.48
2019-02-12T06:38:35.031Z,0.45
2019-02-12T06:40:42.188Z,0.52
2019-02-12T06:42:49.698Z,0.49
2019-02-12T06:44:57.065Z,0.51
2019-02-12T06:47:04.544Z,0.48
2019-02-12T06:49:11.941Z,0.55
2019-02-12T06:51:19.398Z,0.51
2019-02-12T06:53:26.846Z,0.51
2019-02-12T06:55:34.315Z,0.53
2019-02-12T06:57:41.591Z,0.58
2019-02-12T06:59:48.964Z,0.62
2019-02-12T07:02:51.048Z,0.65
2019-02-12T07:04:58.561Z,0.64
2019-02-12T07:08:11.586Z,0.68
2019-02-12T07:10:26.752Z,0.68
2019-02-12T07:13:17.102Z,0.66
2019-02-12T07:15:36.735Z,0.61
2019-02-12T07:18:54.624Z,0.67
2019-02-12T07:22:00.618Z,0.61
2019-02-12T07:25:28.871Z,0.60
2019-02-12T07:28:24.738Z,0.63
2019-02-12T07:31:06.638Z,0.73
2019-02-12T07:34:25.626Z,0.68
2019-02-12T07:37:15.594Z,0.59
2019-02-12T07:39:53.291Z,0.50
2019-02-12T07:42:50.188Z,0.57
2019-02-12T07:45:59.249Z,0.56
2019-02-12T07:48:42.311Z,0.74
2019-02-12T07:51:38.227Z,0.70
2019-02-12T07:55:02.999Z,0.82
2019-02-12T07:58:09.737Z,0.82
2019-02-12T08:00:59.257Z,0.87
2019-02-12T08:04:19.421Z,0.92
2019-02-12T08:07:24.617Z,0.98
2019-02-12T08:10:37.142Z,1.01
2019-02-12T08:13:43.814Z,1.01
2019-02-12T08:16:33.338Z,1.15
2019-02-12T08:19:31.146Z,1.21
2019-02-12T08:22:18.697Z,1.26
2019-02-12T08:25:13.382Z,1.30
2019-02-12T08:28:00.400Z,1.27
2019-02-12T08:31:34.407Z,1.27
2019-02-12T08:34:27.003Z,1.25
2019-02-12T08:37:14.565Z,1.24
2019-02-12T08:40:04.923Z,1.27
2019-02-12T08:43:24.465Z,1.32
2019-02-12T08:46:05.857Z,1.35
2019-02-12T08:49:07.074Z,1.43
2019-02-12T08:52:08.574Z,1.42
2019-02-12T08:55:20.661Z,1.40
2019-02-12T08:58:36.497Z,1.40
2019-02-12T09:01:27.825Z,1.39
2019-02-12T09:04:24.388Z,1.42
2019-02-12T09:07:06.206Z,1.46
2019-02-12T09:10:08.204Z,1.50
2019-02-12T09:13:27.095Z,1.59
2019-02-12T09:16:34.321Z,1.60
2019-02-12T09:19:26.664Z,1.63
2019-02-12T09:22:34.975Z,1.67
2019-02-12T09:25:52.370Z,1.66
2019-02-12T09:28:56.317Z,1.63
2019-02-12T09:32:20.798Z,1.70
2019-02-12T09:35:21.909Z,1.78
2019-02-12T09:38:38.238Z,1.82
2019-02-12T09:41:11.682Z,1.81
2019-02-12T09:44:29.468Z,1.82
2019-02-12T09:47:26.683Z,1.75
2019-02-12T09:50:48.319Z,1.74
2019-02-12T09:53:46.541Z,1.68
2019-02-12T09:57:14.582Z,1.73
2019-02-12T10:00:08.263Z,1.79
2019-02-12T10:03:42.400Z,1.79
2019-02-12T10:06:33.465Z,1.77
2019-02-12T10:09:52.077Z,1.82
2019-02-12T10:12:36.237Z,1.81
2019-02-12T10:15:23.639Z,1.84
2019-02-12T10:18:09.370Z,1.79
2019-02-12T10:21:01.169Z,1.79
2019-02-12T10:24:20.079Z,1.78
2019-02-12T10:26:27.531Z,1.81
2019-02-12T10:29:23.771Z,1.79
2019-02-12T10:31:48.421Z,1.81
2019-02-12T10:33:55.840Z,1.80
2019-02-12T10:36:03.330Z,1.82
2019-02-12T10:40:19.211Z,1.93
2019-02-12T10:42:26.543Z,1.95
2019-02-12T10:44:34.117Z,1.95
2019-02-12T10:46:41.601Z,1.89
2019-02-12T10:48:48.917Z,1.89
2019-02-12T10:50:56.246Z,1.88
2019-02-12T10:53:03.734Z,1.94
2019-02-12T10:55:11.115Z,1.92
2019-02-12T10:57:18.526Z,1.86
2019-02-12T10:59:25.910Z,1.84
2019-02-12T11:01:33.507Z,1.88
2019-02-12T11:03:40.968Z,1.88
2019-02-12T11:05:48.280Z,1.88
2019-02-12T11:07:55.806Z,1.87
2019-02-12T11:10:03.948Z,1.91
2019-02-12T11:12:11.446Z,1.79
2019-02-12T11:14:18.807Z,1.79
2019-02-12T11:16:26.134Z,1.80
2019-02-12T11:18:33.567Z,1.81
2019-02-12T11:20:41.043Z,1.79
2019-02-12T11:22:48.515Z,1.78
2019-02-12T11:24:57.075Z,1.76
2019-02-12T11:27:04.528Z,1.72
2019-02-12T11:29:12.087Z,1.75
2019-02-12T11:31:19.778Z,1.70
2019-02-12T11:33:27.282Z,1.73
2019-02-12T11:35:34.784Z,1.74
2019-02-12T11:37:42.211Z,1.70
2019-02-12T11:39:49.577Z,1.73
2019-02-12T11:41:57.054Z,1.74
2019-02-12T11:44:04.540Z,1.75
2019-02-12T11:46:11.971Z,1.74
2019-02-12T11:48:19.569Z,1.72
2019-02-12T11:50:27.001Z,1.69
2019-02-12T11:52:34.410Z,1.70
2019-02-12T11:54:45.390Z,1.70
2019-02-12T11:56:52.795Z,1.72
2019-02-12T11:59:00.337Z,1.72
2019-02-12T12:01:11.623Z,1.72
2019-02-12T12:03:19.472Z,1.68
2019-02-12T12:05:26.948Z,1.73
2019-02-12T12:07:34.665Z,1.76
2019-02-12T12:09:42.384Z,1.75
2019-02-12T12:11:49.867Z,1.70
2019-02-12T12:13:57.657Z,1.71
2019-02-12T12:16:05.418Z,1.68
2019-02-12T12:18:13.105Z,1.71
2019-02-12T12:20:20.693Z,1.72
2019-02-12T12:22:28.371Z,1.76
2019-02-12T12:24:35.833Z,1.75
2019-02-12T12:26:43.360Z,1.71
2019-02-12T12:28:50.904Z,1.73
2019-02-12T12:30:58.519Z,1.75
2019-02-12T12:33:06.487Z,1.73
2019-02-12T12:35:13.928Z,1.72
2019-02-12T12:37:21.339Z,1.74
2019-02-12T12:39:28.763Z,1.73
2019-02-12T12:41:36.084Z,1.80
2019-02-12T12:43:43.491Z,1.80
2019-02-12T12:45:50.924Z,1.78
2019-02-12T12:47:58.379Z,1.77
2019-02-12T12:50:06.167Z,1.77
2019-02-12T12:52:13.654Z,1.80
2019-02-12T12:54:21.127Z,1.80
2019-02-12T12:56:28.568Z,1.79
2019-02-12T12:58:36.018Z,1.78
2019-02-12T13:00:43.491Z,1.79
2019-02-12T13:02:51.056Z,1.79
2019-02-12T13:04:58.478Z,1.80
2019-02-12T13:07:05.942Z,1.84
2019-02-12T13:09:13.454Z,1.84
2019-02-12T13:11:21.108Z,1.84
2019-02-12T13:13:28.574Z,1.83
2019-02-12T13:15:35.897Z,1.82
2019-02-12T13:17:43.464Z,1.77
2019-02-12T13:19:50.955Z,1.76
2019-02-12T13:21:58.426Z,1.75
2019-02-12T13:24:05.823Z,1.78
2019-02-12T13:26:13.250Z,1.77
2019-02-12T13:28:20.718Z,1.79
2019-02-12T13:30:28.257Z,1.81
2019-02-12T13:32:35.765Z,1.83
2019-02-12T13:34:43.690Z,1.86
2019-02-12T13:36:51.185Z,1.90
2019-02-12T13:39:00.738Z,1.90
2019-02-12T13:41:08.257Z,1.91
2019-02-12T13:43:15.678Z,1.91
2019-02-12T13:45:22.780Z,1.92
2019-02-12T13:47:30.255Z,1.91
2019-02-12T13:49:37.662Z,1.92
2019-02-12T13:51:45.186Z,1.92
2019-02-12T13:53:52.712Z,1.93
2019-02-12T13:56:00.166Z,1.95
2019-02-12T13:58:07.622Z,1.95
2019-02-12T14:00:15.953Z,1.93
2019-02-12T14:02:23.575Z,1.96
2019-02-12T14:04:31.007Z,1.95
2019-02-12T14:06:38.333Z,1.96
2019-02-12T14:08:46.339Z,1.97
2019-02-12T14:10:54.253Z,1.96
2019-02-12T14:13:02.475Z,1.95
2019-02-12T14:15:12.135Z,1.98
2019-02-12T14:17:20.154Z,1.97
2019-02-12T14:19:27.804Z,1.95
2019-02-12T14:21:35.449Z,1.93
2019-02-12T14:23:42.934Z,1.91
2019-02-12T14:25:50.550Z,1.92
2019-02-12T14:27:58.489Z,1.92
2019-02-12T14:30:06.299Z,1.92
2019-02-12T14:32:14.062Z,1.95
2019-02-12T14:34:21.659Z,1.93
2019-02-12T14:36:29.585Z,1.91
2019-02-12T14:38:37.303Z,1.94
2019-02-12T14:40:44.939Z,1.92
2019-02-12T14:42:52.899Z,1.91
2019-02-12T14:45:00.978Z,1.91
2019-02-12T14:47:08.856Z,1.93
2019-02-12T14:49:16.762Z,1.93
2019-02-12T14:51:24.932Z,1.93
2019-02-12T14:53:32.776Z,1.94
2019-02-12T14:55:40.385Z,1.95
2019-02-12T14:57:48.338Z,1.95
2019-02-12T14:59:56.185Z,1.96
2019-02-12T15:02:04.309Z,1.94
2019-02-12T15:04:12.062Z,1.94
2019-02-12T15:06:19.922Z,1.91
2019-02-12T15:08:27.972Z,1.91
2019-02-12T15:10:35.694Z,1.91
2019-02-12T15:12:43.383Z,1.90
2019-02-12T15:14:50.851Z,1.91
2019-02-12T15:16:58.396Z,1.90
2019-02-12T15:19:05.747Z,1.89
2019-02-12T15:21:13.265Z,1.89
2019-02-12T15:23:21.099Z,1.86
2019-02-12T15:25:28.665Z,1.89
2019-02-12T15:27:36.557Z,1.85
2019-02-12T15:29:43.991Z,1.86
2019-02-12T15:31:51.760Z,1.85
2019-02-12T15:33:59.896Z,1.85
2019-02-12T15:36:08.139Z,1.83
2019-02-12T15:38:16.069Z,1.81
2019-02-12T15:40:24.097Z,1.83
2019-02-12T15:42:32.570Z,1.82
2019-02-12T15:44:40.119Z,1.80
2019-02-12T15:46:47.641Z,1.80
2019-02-12T15:48:55.156Z,1.80
2019-02-12T15:51:02.649Z,1.79
2019-02-12T15:53:10.149Z,1.78
2019-02-12T15:55:17.871Z,1.78
2019-02-12T15:57:27.175Z,1.78
2019-02-12T15:59:34.685Z,1.77
2019-02-12T16:01:42.086Z,1.77
2019-02-12T16:03:49.986Z,1.81
2019-02-12T16:05:58.776Z,1.81
2019-02-12T16:08:07.710Z,1.77
2019-02-12T16:10:19.380Z,1.76
2019-02-12T16:12:28.382Z,1.78
2019-02-12T16:14:36.232Z,1.74
2019-02-12T16:16:44.221Z,1.75
2019-02-12T16:18:52.198Z,1.70
2019-02-12T16:20:59.613Z,1.70
2019-02-12T16:23:07.118Z,1.68
2019-02-12T16:25:15.436Z,1.70
2019-02-12T16:27:23.223Z,1.70
2019-02-12T16:29:31.546Z,1.68
2019-02-12T16:31:39.750Z,1.69
2019-02-12T16:33:48.357Z,1.67
2019-02-12T16:35:56.693Z,1.63
2019-02-12T16:38:04.606Z,1.60
2019-02-12T16:40:13.640Z,1.60
2019-02-12T16:42:22.023Z,1.59
2019-02-12T16:44:30.098Z,1.59
2019-02-12T16:46:37.795Z,1.61
2019-02-12T16:48:46.263Z,1.61
2019-02-12T16:50:54.402Z,1.57
2019-02-12T16:53:02.508Z,1.61
2019-02-12T16:55:11.223Z,1.59
2019-02-12T16:57:18.938Z,1.60
2019-02-12T16:59:26.876Z,1.59
2019-02-12T17:01:34.854Z,1.60
2019-02-12T17:03:43.522Z,1.54
2019-02-12T17:05:51.868Z,1.52
2019-02-12T17:08:00.078Z,1.51
2019-02-12T17:10:09.006Z,1.50
2019-02-12T17:12:16.881Z,1.47
2019-02-12T17:14:24.950Z,1.40
2019-02-12T17:16:32.936Z,1.36
2019-02-12T17:18:41.470Z,1.27
2019-02-12T17:20:49.564Z,1.17
2019-02-12T17:22:57.927Z,1.15
2019-02-12T17:25:07.031Z,1.06
2019-02-12T17:27:15.415Z,1.01
2019-02-12T17:29:23.232Z,1.04
2019-02-12T17:31:30.974Z,1.06
2019-02-12T17:33:38.436Z,0.99
2019-02-12T17:35:46.541Z,0.97
2019-02-12T17:37:54.184Z,0.95
2019-02-12T17:40:01.634Z,0.87
2019-02-12T17:42:09.410Z,0.87
2019-02-12T17:44:17.328Z,0.87
2019-02-12T17:46:25.248Z,0.85
2019-02-12T17:48:33.671Z,0.81
2019-02-12T17:50:41.289Z,0.82
2019-02-12T17:52:49.451Z,0.71
2019-02-12T17:54:57.273Z,0.77
2019-02-12T17:57:04.970Z,0.75
2019-02-12T17:59:13.125Z,0.69
2019-02-12T18:01:20.658Z,0.75
2019-02-12T18:03:28.246Z,0.64
2019-02-12T18:05:36.161Z,0.59
2019-02-12T18:07:43.762Z,0.60
2019-02-12T18:09:51.340Z,0.61
2019-02-12T18:11:59.068Z,0.48
2019-02-12T18:14:07.253Z,0.48
2019-02-12T18:16:15.310Z,0.54
2019-02-12T18:18:23.423Z,0.44
2019-02-12T18:20:31.681Z,0.49
2019-02-12T18:22:39.907Z,0.50
2019-02-12T18:24:47.570Z,0.49
2019-02-12T18:26:54.985Z,0.38
2019-02-12T18:29:02.889Z,0.40
2019-02-12T18:31:10.660Z,0.34
2019-02-12T18:33:18.309Z,0.23
2019-02-12T18:35:26.647Z,0.37
2019-02-12T18:37:34.263Z,0.23
2019-02-12T18:39:41.905Z,0.11
2019-02-12T18:41:49.396Z,0.22
2019-02-12T18:43:57.070Z,0.10
2019-02-12T18:46:04.440Z,0.08
2019-02-12T18:48:12.237Z,0.06
2019-02-12T18:50:19.747Z,0.08
2019-02-12T18:52:27.293Z,0.00
2019-02-12T18:54:34.701Z,-0.12
2019-02-12T18:56:42.321Z,0.02
2019-02-12T18:58:49.819Z,-0.07
2019-02-12T19:00:57.367Z,-0.06
2019-02-12T19:03:04.888Z,-0.15
2019-02-12T19:05:12.461Z,-0.13
2019-02-12T19:07:19.971Z,-0.07
2019-02-12T19:09:27.369Z,-0.07
2019-02-12T19:11:35.059Z,-0.07
2019-02-12T19:13:42.740Z,0.02
2019-02-12T19:15:50.350Z,-0.17
2019-02-12T19:18:06.364Z,-0.03
2019-02-12T19:20:14.745Z,-0.17
2019-02-12T19:22:22.490Z,-0.28
2019-02-12T19:24:30.372Z,-0.32
2019-02-12T19:26:37.951Z,-0.19
2019-02-12T19:28:45.450Z,-0.28
2019-02-12T19:30:52.910Z,-0.39
2019-02-12T19:33:00.707Z,-0.28
2019-02-12T19:35:09.317Z,-0.28
2019-02-12T19:37:16.799Z,-0.28
2019-02-12T19:39:24.323Z,-0.35
2019-02-12T19:41:31.850Z,-0.44
2019-02-12T19:43:39.513Z,-0.44
2019-02-12T19:45:47.077Z,-0.43
2019-02-12T19:47:54.628Z,-0.52
2019-02-12T19:50:01.998Z,-0.34
2019-02-12T19:52:09.841Z,-0.25
2019-02-12T19:54:17.226Z,-0.34
2019-02-12T19:56:24.610Z,-0.31
2019-02-12T19:58:32.226Z,-0.40
2019-02-12T20:00:40.898Z,-0.59
2019-02-12T20:02:48.826Z,-0.42
2019-02-12T20:04:56.532Z,-0.40
2019-02-12T20:07:03.944Z,-0.44
2019-02-12T20:09:19.054Z,-0.43
2019-02-12T20:11:26.482Z,-0.50
2019-02-12T20:13:34.226Z,-0.39
2019-02-12T20:15:41.810Z,-0.31
2019-02-12T20:17:49.358Z,-0.29
2019-02-12T20:19:57.217Z,-0.45
2019-02-12T20:22:04.685Z,-0.38
2019-02-12T20:24:13.687Z,-0.29
2019-02-12T20:26:22.463Z,-0.46
2019-02-12T20:28:29.897Z,-0.34
2019-02-12T20:30:37.461Z,-0.30
2019-02-12T20:32:44.921Z,-0.27
2019-02-12T20:34:52.615Z,-0.48
2019-02-12T20:37:00.097Z,-0.40
2019-02-12T20:39:08.085Z,-0.44
2019-02-12T20:41:15.689Z,-0.58
2019-02-12T20:43:23.419Z,-0.45
2019-02-12T20:45:30.999Z,-0.53
2019-02-12T20:47:38.667Z,-0.61
2019-02-12T20:49:46.459Z,-0.73
2019-02-12T20:51:53.947Z,-0.79
2019-02-12T20:54:01.644Z,-0.84
2019-02-12T20:56:09.167Z,-0.75
2019-02-12T20:58:17.137Z,-0.68
2019-02-12T21:00:24.832Z,-0.64
2019-02-12T21:02:32.377Z,-0.46
2019-02-12T21:04:39.950Z,-0.48
2019-02-12T21:06:47.622Z,-0.69
2019-02-12T21:08:55.120Z,-0.61
2019-02-12T21:11:02.600Z,-0.38
2019-02-12T21:13:10.030Z,-0.67
2019-02-12T21:15:19.788Z,-0.64
2019-02-12T21:17:27.196Z,-0.61
2019-02-12T21:19:34.758Z,-0.62
2019-02-12T21:21:42.208Z,-0.73
2019-02-12T21:23:49.726Z,-0.84
2019-02-12T21:25:57.350Z,-0.95
2019-02-12T21:28:04.887Z,-1.05
2019-02-12T21:30:16.357Z,-0.84
2019-02-12T21:32:24.004Z,-0.76
2019-02-12T21:34:31.646Z,-0.82
2019-02-12T21:36:39.220Z,-0.93
2019-02-12T21:38:46.757Z,-0.74
2019-02-12T21:40:54.581Z,-0.72
2019-02-12T21:43:02.274Z,-0.93
2019-02-12T21:45:10.567Z,-0.93
2019-02-12T21:47:18.006Z,-0.88
2019-02-12T21:49:25.520Z,-0.66
2019-02-12T21:51:33.113Z,-0.76
2019-02-12T21:53:40.709Z,-0.70
2019-02-12T21:55:48.371Z,-0.76
2019-02-12T21:57:55.987Z,-0.70
2019-02-12T22:00:03.550Z,-0.68
2019-02-12T22:02:11.387Z,-0.81
2019-02-12T22:04:18.885Z,-0.81
2019-02-12T22:06:26.437Z,-0.72
2019-02-12T22:08:33.903Z,-0.75
2019-02-12T22:10:46.505Z,-0.68
2019-02-12T22:12:50.809Z,-0.74
2019-02-12T22:15:02.968Z,-0.77
2019-02-12T22:17:10.957Z,-0.98
2019-02-12T22:19:18.471Z,-0.80
2019-02-12T22:21:25.963Z,-0.90
2019-02-12T22:23:33.606Z,-0.85
2019-02-12T22:25:41.041Z,-0.81
2019-02-12T22:27:48.578Z,-0.85
2019-02-12T22:29:56.634Z,-0.75
2019-02-12T22:32:04.212Z,-0.86
2019-02-12T22:34:11.771Z,-1.00
2019-02-12T22:36:19.271Z,-1.12
2019-02-12T22:38:26.887Z,-1.00
2019-02-12T22:40:34.453Z,-1.08
2019-02-12T22:42:41.805Z,-0.98
2019-02-12T22:44:49.523Z,-1.03
2019-02-12T22:46:57.194Z,-1.11
2019-02-12T22:49:04.687Z,-0.99
2019-02-12T22:51:12.158Z,-0.92
2019-02-12T22:53:19.968Z,-0.83
2019-02-12T22:55:27.519Z,-1.00
2019-02-12T22:57:34.882Z,-1.04
2019-02-12T22:59:42.839Z,-0.93
2019-02-12T23:01:50.439Z,-1.05
2019-02-12T23:03:58.314Z,-1.02
2019-02-12T23:06:05.857Z,-1.21
2019-02-12T23:08:13.123Z,-1.11
2019-02-12T23:10:21.676Z,-1.12
2019-02-12T23:12:29.309Z,-1.21
2019-02-12T23:14:36.566Z,-1.01
2019-02-12T23:16:44.230Z,-1.11
2019-02-12T23:18:51.824Z,-0.99
2019-02-12T23:20:59.322Z,-1.01
2019-02-12T23:23:06.987Z,-1.12
2019-02-12T23:25:14.449Z,-1.12
2019-02-12T23:27:22.217Z,-1.19
2019-02-12T23:29:29.659Z,-0.85
2019-02-12T23:31:37.103Z,-1.19
2019-02-12T23:33:44.578Z,-1.15
2019-02-12T23:35:52.027Z,-1.21
2019-02-12T23:37:59.505Z,-1.29
2019-02-12T23:40:07.161Z,-1.14
2019-02-12T23:42:14.643Z,-1.19
2019-02-12T23:44:22.063Z,-1.16
2019-02-12T23:46:29.454Z,-1.33
2019-02-12T23:48:36.999Z,-1.13
2019-02-12T23:50:44.522Z,-1.19
2019-02-12T23:52:51.895Z,-1.10
2019-02-12T23:54:59.341Z,-1.18
2019-02-12T23:57:06.727Z,-1.20
2019-02-12T23:59:14.199Z,-1.20
